createdAt,value
2022-08-18T00:01:16.047Z,18.15
2022-08-18T00:03:55.932Z,17.80
2022-08-18T00:06:28.259Z,17.89
2022-08-18T00:08:58.526Z,17.92
2022-08-18T00:11:27.006Z,17.89
2022-08-18T00:13:56.198Z,17.88
2022-08-18T00:16:25.807Z,17.97
2022-08-18T00:18:52.690Z,18.07
2022-08-18T00:21:22.274Z,17.93
2022-08-18T00:23:49.177Z,17.97
2022-08-18T00:26:17.562Z,17.76
2022-08-18T00:28:44.822Z,17.88
2022-08-18T00:31:12.063Z,17.78
2022-08-18T00:33:43.882Z,17.71
2022-08-18T00:36:17.968Z,17.58
2022-08-18T00:38:46.229Z,17.61
2022-08-18T00:41:13.592Z,17.58
2022-08-18T00:43:45.164Z,17.50
2022-08-18T00:46:17.583Z,17.58
2022-08-18T00:48:48.873Z,17.65
2022-08-18T00:51:23.188Z,17.62
2022-08-18T00:53:55.531Z,17.79
2022-08-18T00:56:26.022Z,17.84
2022-08-18T00:59:00.107Z,17.80
2022-08-18T01:01:31.411Z,17.87
2022-08-18T01:04:03.002Z,17.77
2022-08-18T01:06:37.489Z,17.64
2022-08-18T01:09:04.972Z,17.74
2022-08-18T01:11:35.349Z,17.53
2022-08-18T01:14:03.058Z,17.67
2022-08-18T01:16:30.565Z,17.71
2022-08-18T01:19:02.443Z,17.71
2022-08-18T01:21:32.466Z,17.70
2022-08-18T01:24:06.661Z,17.70
2022-08-18T01:26:37.597Z,17.32
2022-08-18T01:29:11.508Z,17.25
2022-08-18T01:31:43.512Z,17.18
2022-08-18T01:34:24.050Z,17.10
2022-08-18T01:36:52.399Z,16.95
2022-08-18T01:41:22.760Z,16.79
2022-08-18T01:42:08.878Z,16.64
2022-08-18T01:44:37.447Z,16.52
2022-08-18T01:47:09.295Z,16.47
2022-08-18T01:49:37.869Z,16.62
2022-08-18T01:52:05.562Z,16.74
2022-08-18T01:54:35.756Z,16.75
2022-08-18T01:57:02.821Z,16.92
2022-08-18T01:59:35.804Z,16.95
2022-08-18T02:02:04.015Z,16.55
2022-08-18T02:04:36.180Z,16.59
2022-08-18T02:07:09.112Z,16.54
2022-08-18T02:09:42.807Z,16.51
2022-08-18T02:12:11.373Z,16.50
2022-08-18T02:14:39.206Z,16.41
2022-08-18T02:17:08.682Z,16.26
2022-08-18T02:19:43.603Z,16.30
2022-08-18T02:22:13.481Z,16.26
2022-08-18T02:24:42.889Z,16.15
2022-08-18T02:27:15.797Z,15.85
2022-08-18T02:29:46.097Z,16.10
2022-08-18T02:32:15.254Z,16.21
2022-08-18T02:34:43.403Z,16.23
2022-08-18T02:37:15.088Z,16.14
2022-08-18T02:39:44.275Z,16.19
2022-08-18T02:42:11.983Z,16.08
2022-08-18T02:44:38.866Z,16.20
2022-08-18T02:47:07.538Z,16.10
2022-08-18T02:49:35.714Z,16.23
2022-08-18T02:52:05.445Z,16.20
2022-08-18T02:54:33.600Z,16.33
2022-08-18T02:57:08.357Z,16.40
2022-08-18T02:59:35.212Z,16.31
2022-08-18T03:02:03.897Z,16.31
2022-08-18T03:04:31.312Z,16.25
2022-08-18T03:07:08.910Z,16.19
2022-08-18T03:09:36.843Z,16.26
2022-08-18T03:12:09.196Z,16.16
2022-08-18T03:14:37.013Z,15.99
2022-08-18T03:17:07.083Z,15.88
2022-08-18T03:19:35.902Z,15.88
2022-08-18T03:22:24.267Z,15.96
2022-08-18T03:24:54.834Z,15.95
2022-08-18T03:27:24.099Z,16.19
2022-08-18T03:29:53.518Z,16.16
2022-08-18T03:32:24.721Z,16.15
2022-08-18T03:34:51.739Z,16.18
2022-08-18T03:37:20.976Z,16.16
2022-08-18T03:39:50.906Z,16.03
2022-08-18T03:42:17.948Z,16.14
2022-08-18T03:44:48.748Z,16.11
2022-08-18T03:47:15.606Z,16.16
2022-08-18T03:49:44.646Z,16.28
2022-08-18T03:52:11.629Z,16.22
2022-08-18T03:54:44.470Z,16.10
2022-08-18T03:57:13.139Z,16.07
2022-08-18T03:59:41.237Z,16.18
2022-08-18T04:02:10.763Z,16.17
2022-08-18T04:04:41.240Z,16.21
2022-08-18T04:07:11.735Z,16.20
2022-08-18T04:09:42.292Z,16.19
2022-08-18T04:12:16.512Z,16.35
2022-08-18T04:14:51.380Z,16.52
2022-08-18T04:17:22.403Z,16.22
2022-08-18T04:19:49.864Z,15.80
2022-08-18T04:22:19.780Z,15.82
2022-08-18T04:24:47.609Z,15.93
2022-08-18T04:27:18.576Z,15.95
2022-08-18T04:29:45.870Z,16.00
2022-08-18T04:32:12.844Z,16.09
2022-08-18T04:34:45.143Z,16.19
2022-08-18T04:37:12.753Z,16.14
2022-08-18T04:39:40.371Z,16.22
2022-08-18T04:44:44.743Z,16.12
2022-08-18T04:47:12.656Z,16.13
2022-08-18T04:49:43.377Z,16.16
2022-08-18T04:52:36.224Z,16.22
2022-08-18T04:54:58.107Z,16.22
2022-08-18T04:57:33.104Z,16.27
2022-08-18T05:00:09.019Z,16.32
2022-08-18T05:02:36.487Z,16.30
2022-08-18T05:05:16.411Z,16.35
2022-08-18T05:07:50.599Z,16.32
2022-08-18T05:10:19.601Z,16.37
2022-08-18T05:12:49.081Z,16.59
2022-08-18T05:15:18.468Z,16.78
2022-08-18T05:17:45.487Z,16.94
2022-08-18T05:20:21.478Z,17.14
2022-08-18T05:22:48.576Z,17.36
2022-08-18T05:25:15.857Z,17.53
2022-08-18T05:27:42.953Z,17.65
2022-08-18T05:30:11.514Z,17.75
2022-08-18T05:32:48.382Z,17.87
2022-08-18T05:35:22.180Z,17.97
2022-08-18T05:38:03.067Z,18.04
2022-08-18T05:40:32.960Z,18.14
2022-08-18T05:43:02.466Z,18.38
2022-08-18T05:45:30.912Z,18.49
2022-08-18T05:47:58.637Z,18.55
2022-08-18T05:53:13.904Z,18.39
2022-08-18T05:55:49.231Z,18.19
2022-08-18T05:58:22.035Z,18.12
2022-08-18T06:00:56.138Z,18.04
2022-08-18T06:03:45.174Z,17.92
2022-08-18T06:06:19.392Z,17.66
2022-08-18T06:08:56.330Z,17.48
2022-08-18T06:11:25.838Z,17.34
2022-08-18T06:13:58.998Z,17.29
2022-08-18T06:16:45.322Z,17.12
2022-08-18T06:19:29.953Z,17.15
2022-08-18T06:22:11.313Z,17.16
2022-08-18T06:24:44.611Z,17.12
2022-08-18T06:27:31.625Z,17.05
2022-08-18T06:30:10.711Z,17.00
2022-08-18T06:33:00.812Z,16.83
2022-08-18T06:35:35.786Z,16.82
2022-08-18T06:38:29.535Z,16.58
2022-08-18T06:41:08.556Z,16.43
2022-08-18T06:43:40.228Z,16.19
2022-08-18T06:46:15.506Z,16.11
2022-08-18T06:48:50.893Z,16.09
2022-08-18T06:51:26.414Z,16.13
2022-08-18T06:54:01.197Z,16.07
2022-08-18T06:56:47.779Z,16.21
2022-08-18T06:59:23.898Z,16.28
2022-08-18T07:01:56.517Z,16.42
2022-08-18T07:05:00.991Z,16.50
2022-08-18T07:07:40.167Z,16.86
2022-08-18T07:10:30.063Z,17.06
2022-08-18T07:13:16.147Z,17.26
2022-08-18T07:15:45.402Z,17.41
2022-08-18T07:18:13.611Z,17.44
2022-08-18T07:20:49.230Z,17.41
2022-08-18T07:23:25.587Z,17.42
2022-08-18T07:26:06.859Z,17.45
2022-08-18T07:28:38.076Z,17.54
2022-08-18T07:31:36.947Z,17.57
2022-08-18T07:34:08.623Z,17.70
2022-08-18T07:36:44.384Z,17.87
2022-08-18T07:39:19.886Z,18.03
2022-08-18T07:41:52.743Z,18.06
2022-08-18T07:44:31.140Z,18.10
2022-08-18T07:47:01.922Z,18.09
2022-08-18T07:49:35.572Z,18.03
2022-08-18T07:52:27.949Z,18.15
2022-08-18T07:55:03.446Z,18.35
2022-08-18T07:57:43.443Z,18.79
2022-08-18T08:00:35.134Z,19.11
2022-08-18T08:03:24.304Z,19.47
2022-08-18T08:06:01.028Z,19.97
2022-08-18T08:08:35.885Z,20.33
2022-08-18T08:11:25.345Z,20.81
2022-08-18T08:14:07.345Z,21.13
2022-08-18T08:16:49.259Z,21.10
2022-08-18T08:20:02.307Z,21.45
2022-08-18T08:22:40.080Z,21.78
2022-08-18T08:25:42.918Z,22.20
2022-08-18T08:28:13.160Z,22.65
2022-08-18T08:30:53.574Z,22.91
2022-08-18T08:33:28.778Z,23.17
2022-08-18T08:36:03.053Z,23.47
2022-08-18T08:38:44.951Z,23.82
2022-08-18T08:41:18.503Z,23.79
2022-08-18T08:43:53.038Z,23.97
2022-08-18T08:46:26.702Z,24.24
2022-08-18T08:48:59.706Z,24.25
2022-08-18T08:51:37.944Z,24.61
2022-08-18T08:54:17.394Z,24.50
2022-08-18T08:56:50.301Z,24.82
2022-08-18T08:59:19.831Z,25.16
2022-08-18T09:01:56.646Z,25.40
2022-08-18T09:04:36.280Z,25.42
2022-08-18T09:07:20.340Z,25.48
2022-08-18T09:10:20.036Z,25.60
2022-08-18T09:13:04.393Z,25.50
2022-08-18T09:15:56.906Z,25.65
2022-08-18T09:18:52.546Z,25.87
2022-08-18T09:21:36.180Z,25.97
2022-08-18T09:24:09.144Z,26.10
2022-08-18T09:26:42.850Z,25.92
2022-08-18T09:29:16.030Z,26.15
2022-08-18T09:31:46.315Z,26.38
2022-08-18T09:34:37.225Z,26.28
2022-08-18T09:37:16.817Z,26.38
2022-08-18T09:39:54.747Z,25.99
2022-08-18T09:42:33.909Z,25.77
2022-08-18T09:45:58.151Z,25.89
2022-08-18T09:48:33.565Z,26.24
2022-08-18T09:51:18.556Z,26.29
2022-08-18T09:54:25.189Z,25.70
2022-08-18T09:57:19.540Z,25.93
2022-08-18T10:00:16.325Z,26.34
2022-08-18T10:03:10.365Z,26.74
2022-08-18T10:05:38.282Z,27.06
2022-08-18T10:08:50.393Z,27.39
2022-08-18T10:11:42.772Z,27.13
2022-08-18T10:14:34.045Z,26.81
2022-08-18T10:17:21.725Z,26.62
2022-08-18T10:19:59.093Z,27.05
2022-08-18T10:22:39.684Z,27.29
2022-08-18T10:25:22.354Z,27.42
2022-08-18T10:27:55.102Z,27.63
2022-08-18T10:31:05.846Z,27.60
2022-08-18T10:36:55.097Z,26.09
2022-08-18T10:39:45.020Z,25.12
2022-08-18T10:42:18.346Z,24.96
2022-08-18T10:44:50.279Z,24.85
2022-08-18T10:47:24.891Z,24.56
2022-08-18T10:49:53.749Z,24.29
2022-08-18T10:52:41.735Z,23.97
2022-08-18T10:55:48.875Z,23.82
2022-08-18T10:58:49.307Z,23.87
2022-08-18T11:01:41.403Z,23.73
2022-08-18T11:04:33.423Z,23.15
2022-08-18T11:07:08.416Z,22.48
2022-08-18T11:09:36.934Z,22.07
2022-08-18T11:12:14.890Z,21.65
2022-08-18T11:15:22.528Z,21.66
2022-08-18T11:21:15.505Z,22.29
2022-08-18T11:23:42.494Z,22.69
2022-08-18T11:26:15.038Z,22.98
2022-08-18T11:28:46.631Z,23.08
2022-08-18T11:31:14.382Z,23.29
2022-08-18T11:33:44.715Z,23.60
2022-08-18T11:36:18.335Z,23.97
2022-08-18T11:38:54.848Z,24.19
2022-08-18T11:41:47.794Z,24.39
2022-08-18T11:44:20.737Z,24.66
2022-08-18T11:46:51.782Z,24.67
2022-08-18T11:49:34.287Z,24.56
2022-08-18T11:52:06.080Z,24.25
2022-08-18T11:54:50.481Z,24.16
2022-08-18T11:57:46.266Z,24.04
2022-08-18T12:00:55.075Z,23.66
2022-08-18T12:03:53.033Z,23.36
2022-08-18T12:06:27.324Z,23.16
2022-08-18T12:09:24.379Z,23.09
2022-08-18T12:12:04.983Z,22.93
2022-08-18T12:14:57.256Z,22.53
2022-08-18T12:17:32.775Z,22.25
2022-08-18T12:20:02.076Z,22.14
2022-08-18T12:22:31.349Z,21.85
2022-08-18T12:24:58.879Z,21.69
2022-08-18T12:30:19.762Z,21.29
2022-08-18T12:35:36.158Z,20.53
2022-08-18T12:38:12.770Z,20.29
2022-08-18T12:40:42.031Z,20.02
2022-08-18T12:43:10.544Z,19.66
2022-08-18T12:45:39.612Z,19.22
2022-08-18T12:48:08.993Z,18.68
2022-08-18T12:50:49.674Z,18.38
2022-08-18T12:53:29.583Z,17.73
2022-08-18T12:56:06.802Z,17.90
2022-08-18T12:58:40.615Z,17.44
2022-08-18T13:01:07.574Z,17.30
2022-08-18T13:03:35.296Z,16.96
2022-08-18T13:06:05.991Z,16.74
2022-08-18T13:08:48.186Z,16.72
2022-08-18T13:11:21.620Z,16.39
2022-08-18T13:13:56.253Z,16.25
2022-08-18T13:16:30.804Z,16.09
2022-08-18T13:19:10.634Z,16.00
2022-08-18T13:21:40.997Z,15.84
2022-08-18T13:24:13.008Z,15.81
2022-08-18T13:26:42.947Z,15.68
2022-08-18T13:29:13.652Z,15.63
2022-08-18T13:31:56.065Z,15.64
2022-08-18T13:34:26.399Z,15.49
2022-08-18T13:36:53.728Z,15.38
2022-08-18T13:39:33.878Z,15.17
2022-08-18T13:42:26.275Z,15.03
2022-08-18T13:44:57.036Z,15.15
2022-08-18T13:47:27.565Z,15.23
2022-08-18T13:49:58.521Z,15.27
2022-08-18T13:52:34.192Z,15.26
2022-08-18T13:55:11.985Z,15.44
2022-08-18T13:57:44.029Z,15.63
2022-08-18T14:00:20.482Z,15.87
2022-08-18T14:02:59.564Z,16.19
2022-08-18T14:05:36.529Z,16.51
2022-08-18T14:08:19.154Z,16.86
2022-08-18T14:10:56.108Z,17.15
2022-08-18T14:13:25.037Z,17.46
2022-08-18T14:15:54.884Z,17.77
2022-08-18T14:18:29.254Z,18.16
2022-08-18T14:20:58.669Z,18.55
2022-08-18T14:23:33.226Z,18.83
2022-08-18T14:26:01.744Z,19.08
2022-08-18T14:28:34.398Z,19.27
2022-08-18T14:31:02.735Z,19.42
2022-08-18T14:33:49.794Z,19.62
2022-08-18T14:36:18.922Z,19.86
2022-08-18T14:38:51.561Z,20.09
2022-08-18T14:41:20.901Z,20.24
2022-08-18T14:44:12.327Z,20.39
2022-08-18T14:46:42.082Z,20.38
2022-08-18T14:49:28.294Z,20.43
2022-08-18T14:51:57.252Z,20.45
2022-08-18T14:54:28.686Z,20.44
2022-08-18T14:56:59.948Z,20.40
2022-08-18T14:59:27.136Z,20.45
2022-08-18T15:01:54.958Z,20.49
2022-08-18T15:04:26.079Z,20.50
2022-08-18T15:06:57.569Z,20.44
2022-08-18T15:09:28.327Z,20.41
2022-08-18T15:11:56.406Z,20.22
2022-08-18T15:14:32.674Z,20.08
2022-08-18T15:17:11.612Z,20.07
2022-08-18T15:19:59.858Z,20.07
2022-08-18T15:22:28.068Z,20.09
2022-08-18T15:24:55.029Z,20.14
2022-08-18T15:27:42.625Z,20.04
2022-08-18T15:30:20.565Z,19.98
2022-08-18T15:32:49.985Z,19.83
2022-08-18T15:35:20.485Z,19.91
2022-08-18T15:37:51.351Z,19.87
2022-08-18T15:40:21.822Z,19.85
2022-08-18T15:43:01.274Z,19.76
2022-08-18T15:45:35.246Z,19.70
2022-08-18T15:48:04.748Z,19.64
2022-08-18T15:50:32.806Z,19.54
2022-08-18T15:55:50.250Z,19.34
2022-08-18T15:58:22.450Z,19.22
2022-08-18T16:00:51.046Z,19.08
2022-08-18T16:03:32.271Z,18.82
2022-08-18T16:05:59.428Z,18.60
2022-08-18T16:08:28.451Z,18.61
2022-08-18T16:10:55.644Z,18.55
2022-08-18T16:13:25.834Z,18.47
2022-08-18T16:15:56.348Z,18.31
2022-08-18T16:18:23.141Z,18.35
2022-08-18T16:20:52.727Z,18.29
2022-08-18T16:23:26.219Z,18.26
2022-08-18T16:26:01.461Z,18.06
2022-08-18T16:28:35.269Z,17.88
2022-08-18T16:31:09.363Z,17.86
2022-08-18T16:33:36.924Z,17.72
2022-08-18T16:36:09.576Z,17.67
2022-08-18T16:38:38.257Z,17.79
2022-08-18T16:41:06.046Z,17.75
2022-08-18T16:43:33.182Z,17.79
2022-08-18T16:46:02.598Z,17.77
2022-08-18T16:48:31.875Z,17.74
2022-08-18T16:50:59.975Z,17.77
2022-08-18T16:53:27.725Z,17.74
2022-08-18T16:56:12.637Z,17.80
2022-08-18T16:58:39.721Z,17.85
2022-08-18T17:01:06.854Z,17.93
2022-08-18T17:03:35.491Z,17.99
2022-08-18T17:06:04.596Z,18.06
2022-08-18T17:08:32.169Z,17.85
2022-08-18T17:11:01.859Z,17.67
2022-08-18T17:13:30.523Z,17.66
2022-08-18T17:15:58.221Z,17.54
2022-08-18T17:18:25.825Z,17.44
2022-08-18T17:20:55.544Z,17.41
2022-08-18T17:23:23.825Z,17.47
2022-08-18T17:25:51.506Z,17.53
2022-08-18T17:28:24.824Z,17.46
2022-08-18T17:30:53.497Z,17.12
2022-08-18T17:33:25.748Z,17.07
2022-08-18T17:35:59.838Z,16.95
2022-08-18T17:38:31.604Z,16.87
2022-08-18T17:41:00.578Z,16.76
2022-08-18T17:43:31.757Z,16.77
2022-08-18T17:46:04.429Z,16.60
2022-08-18T17:48:37.507Z,16.44
2022-08-18T17:51:11.775Z,16.37
2022-08-18T17:53:39.577Z,16.13
2022-08-18T17:56:11.768Z,15.98
2022-08-18T17:58:45.718Z,15.95
2022-08-18T18:01:20.566Z,15.91
2022-08-18T18:03:50.305Z,15.81
2022-08-18T18:06:25.283Z,15.53
2022-08-18T18:09:00.130Z,15.42
2022-08-18T18:11:30.336Z,15.33
2022-08-18T18:13:58.358Z,15.17
2022-08-18T18:16:29.566Z,14.99
2022-08-18T18:18:59.859Z,14.94
2022-08-18T18:22:00.313Z,14.89
2022-08-18T18:24:23.678Z,14.70
2022-08-18T18:26:54.550Z,14.64
2022-08-18T18:29:28.204Z,14.62
2022-08-18T18:32:02.207Z,14.58
2022-08-18T18:34:35.224Z,14.55
2022-08-18T18:37:06.019Z,14.51
2022-08-18T18:39:35.309Z,14.46
2022-08-18T18:42:27.815Z,14.43
2022-08-18T18:44:57.203Z,14.37
2022-08-18T18:47:47.839Z,14.37
2022-08-18T18:50:24.036Z,14.34
2022-08-18T18:53:06.493Z,14.30
2022-08-18T18:55:42.325Z,14.28
2022-08-18T18:58:21.247Z,14.27
2022-08-18T19:00:56.007Z,14.19
2022-08-18T19:03:32.445Z,14.23
2022-08-18T19:06:23.621Z,14.13
2022-08-18T19:09:00.606Z,14.18
2022-08-18T19:11:39.334Z,14.15
2022-08-18T19:14:19.332Z,14.17
2022-08-18T19:16:52.993Z,14.13
2022-08-18T19:19:37.799Z,14.20
2022-08-18T19:22:11.398Z,14.31
2022-08-18T19:24:48.637Z,14.47
2022-08-18T19:27:27.789Z,14.45
2022-08-18T19:30:05.369Z,14.42
2022-08-18T19:32:39.292Z,14.35
2022-08-18T19:35:12.587Z,14.38
2022-08-18T19:37:56.109Z,14.36
2022-08-18T19:40:33.518Z,14.31
2022-08-18T19:43:06.291Z,14.29
2022-08-18T19:45:41.812Z,14.37
2022-08-18T19:48:18.490Z,14.34
2022-08-18T19:50:52.484Z,14.42
2022-08-18T19:53:31.875Z,14.42
2022-08-18T19:56:21.548Z,14.27
2022-08-18T19:59:18.499Z,14.39
2022-08-18T20:01:58.145Z,14.24
2022-08-18T20:04:52.898Z,14.23
2022-08-18T20:07:53.379Z,14.13
2022-08-18T20:10:36.027Z,14.24
2022-08-18T20:13:26.308Z,14.26
2022-08-18T20:16:14.689Z,14.28
2022-08-18T20:18:44.310Z,14.33
2022-08-18T20:21:41.590Z,14.40
2022-08-18T20:24:32.565Z,14.55
2022-08-18T20:27:19.767Z,14.58
2022-08-18T20:30:00.720Z,14.63
2022-08-18T20:32:34.190Z,14.68
2022-08-18T20:35:17.953Z,14.66
2022-08-18T20:37:46.438Z,14.60
2022-08-18T20:40:41.169Z,14.66
2022-08-18T20:43:26.328Z,14.80
2022-08-18T20:46:05.431Z,14.83
2022-08-18T20:48:47.238Z,14.84
2022-08-18T20:51:20.852Z,15.01
2022-08-18T20:54:13.110Z,15.00
2022-08-18T20:56:45.531Z,14.97
2022-08-18T20:59:16.174Z,15.01
2022-08-18T21:01:57.174Z,15.03
2022-08-18T21:04:42.461Z,15.00
2022-08-18T21:07:17.301Z,15.02
2022-08-18T21:09:51.780Z,14.92
2022-08-18T21:12:27.651Z,15.07
2022-08-18T21:15:00.078Z,15.03
2022-08-18T21:17:29.173Z,15.04
2022-08-18T21:20:02.347Z,15.12
2022-08-18T21:22:30.523Z,15.20
2022-08-18T21:25:01.207Z,15.19
2022-08-18T21:27:31.398Z,15.13
2022-08-18T21:30:06.577Z,15.01
2022-08-18T21:32:35.731Z,14.91
2022-08-18T21:35:18.234Z,14.81
2022-08-18T21:37:55.159Z,14.74
2022-08-18T21:40:29.965Z,14.68
2022-08-18T21:42:57.413Z,14.58
2022-08-18T21:45:28.101Z,14.55
2022-08-18T21:47:58.865Z,14.49
2022-08-18T21:50:28.050Z,14.51
2022-08-18T21:52:57.849Z,14.46
2022-08-18T21:55:30.942Z,14.41
2022-08-18T21:58:03.013Z,14.45
2022-08-18T22:00:33.297Z,14.51
2022-08-18T22:03:17.763Z,14.46
2022-08-18T22:05:58.165Z,14.52
2022-08-18T22:08:31.471Z,14.48
2022-08-18T22:11:59.840Z,14.47
2022-08-18T22:14:25.167Z,14.46
2022-08-18T22:17:29.721Z,14.44
2022-08-18T22:20:32.024Z,14.38
2022-08-18T22:23:10.644Z,14.35
2022-08-18T22:25:44.332Z,14.07
2022-08-18T22:28:15.298Z,14.11
2022-08-18T22:30:43.495Z,14.01
2022-08-18T22:33:11.600Z,14.04
2022-08-18T22:35:42.060Z,13.98
2022-08-18T22:38:14.511Z,13.96
2022-08-18T22:40:41.813Z,13.99
2022-08-18T22:43:09.026Z,14.17
2022-08-18T22:45:35.948Z,14.11
2022-08-18T22:48:05.757Z,14.11
2022-08-18T22:50:34.022Z,14.05
2022-08-18T22:53:02.823Z,14.06
2022-08-18T22:55:31.931Z,13.89
2022-08-18T22:58:05.308Z,13.85
2022-08-18T23:00:37.467Z,13.77
2022-08-18T23:03:09.529Z,13.67
2022-08-18T23:05:43.282Z,13.52
2022-08-18T23:08:12.025Z,13.50
2022-08-18T23:10:39.920Z,13.47
2022-08-18T23:13:07.255Z,13.36
2022-08-18T23:15:36.729Z,13.40
2022-08-18T23:18:03.941Z,13.41
2022-08-18T23:20:33.522Z,13.38
2022-08-18T23:23:05.776Z,13.24
2022-08-18T23:25:37.573Z,13.21
2022-08-18T23:28:06.571Z,13.21
2022-08-18T23:30:35.543Z,13.13
2022-08-18T23:33:02.931Z,13.16
2022-08-18T23:35:33.515Z,13.14
2022-08-18T23:38:01.466Z,13.12
2022-08-18T23:40:30.439Z,13.10
2022-08-18T23:43:00.135Z,13.04
2022-08-18T23:45:27.311Z,13.05
2022-08-18T23:47:57.579Z,13.17
2022-08-18T23:50:29.585Z,13.13
2022-08-18T23:53:01.336Z,13.18
2022-08-18T23:55:30.070Z,13.11
2022-08-18T23:57:58.773Z,13.19
